sensor_id;sensor_type;location;lat;lon;timestamp;P1;durP1;ratioP1;P2;durP2;ratioP2
18592;SDS011;9426;54.118;17.948;2024-01-27T00:03:35;34.10;;;3.70;;
18592;SDS011;9426;54.118;17.948;2024-01-27T00:09:01;31.10;;;3.80;;
18592;SDS011;9426;54.118;17.948;2024-01-27T00:14:27;31.87;;;3.60;;
18592;SDS011;9426;54.118;17.948;2024-01-27T00:19:51;24.70;;;3.60;;
18592;SDS011;9426;54.118;17.948;2024-01-27T00:25:17;24.93;;;4.73;;
18592;SDS011;9426;54.118;17.948;2024-01-27T00:30:43;28.63;;;3.90;;
18592;SDS011;9426;54.118;17.948;2024-01-27T00:36:19;25.40;;;4.17;;
18592;SDS011;9426;54.118;17.948;2024-01-27T00:41:48;35.30;;;4.40;;
18592;SDS011;9426;54.118;17.948;2024-01-27T00:47:13;27.53;;;3.80;;
18592;SDS011;9426;54.118;17.948;2024-01-27T00:52:37;24.63;;;3.57;;
18592;SDS011;9426;54.118;17.948;2024-01-27T00:58:02;24.00;;;4.13;;
18592;SDS011;9426;54.118;17.948;2024-01-27T01:03:26;22.60;;;4.20;;
18592;SDS011;9426;54.118;17.948;2024-01-27T01:08:51;29.10;;;4.30;;
18592;SDS011;9426;54.118;17.948;2024-01-27T01:14:16;15.87;;;3.57;;
18592;SDS011;9426;54.118;17.948;2024-01-27T01:19:40;15.93;;;3.20;;
18592;SDS011;9426;54.118;17.948;2024-01-27T01:25:05;23.27;;;3.27;;
18592;SDS011;9426;54.118;17.948;2024-01-27T01:30:31;17.73;;;3.07;;
18592;SDS011;9426;54.118;17.948;2024-01-27T01:35:55;16.00;;;2.47;;
18592;SDS011;9426;54.118;17.948;2024-01-27T01:41:21;13.03;;;2.30;;
18592;SDS011;9426;54.118;17.948;2024-01-27T01:46:47;17.87;;;3.00;;
18592;SDS011;9426;54.118;17.948;2024-01-27T01:52:11;12.27;;;2.40;;
18592;SDS011;9426;54.118;17.948;2024-01-27T01:57:41;12.47;;;2.00;;
18592;SDS011;9426;54.118;17.948;2024-01-27T02:03:11;10.57;;;2.27;;
18592;SDS011;9426;54.118;17.948;2024-01-27T02:08:36;12.23;;;1.90;;
18592;SDS011;9426;54.118;17.948;2024-01-27T02:14:01;15.20;;;2.30;;
18592;SDS011;9426;54.118;17.948;2024-01-27T02:19:29;11.73;;;2.07;;
18592;SDS011;9426;54.118;17.948;2024-01-27T02:24:54;12.10;;;1.80;;
18592;SDS011;9426;54.118;17.948;2024-01-27T02:30:18;12.83;;;2.17;;
18592;SDS011;9426;54.118;17.948;2024-01-27T02:35:43;9.77;;;1.90;;
18592;SDS011;9426;54.118;17.948;2024-01-27T02:41:09;9.60;;;2.03;;
18592;SDS011;9426;54.118;17.948;2024-01-27T02:46:33;10.53;;;1.67;;
18592;SDS011;9426;54.118;17.948;2024-01-27T02:51:57;12.40;;;2.13;;
18592;SDS011;9426;54.118;17.948;2024-01-27T02:57:22;14.80;;;2.23;;
18592;SDS011;9426;54.118;17.948;2024-01-27T03:02:46;6.87;;;1.57;;
18592;SDS011;9426;54.118;17.948;2024-01-27T03:08:11;8.17;;;1.60;;
18592;SDS011;9426;54.118;17.948;2024-01-27T03:13:36;8.20;;;1.57;;
18592;SDS011;9426;54.118;17.948;2024-01-27T03:19:06;6.40;;;1.43;;
18592;SDS011;9426;54.118;17.948;2024-01-27T03:24:30;11.87;;;2.00;;
18592;SDS011;9426;54.118;17.948;2024-01-27T03:29:58;11.90;;;2.00;;
18592;SDS011;9426;54.118;17.948;2024-01-27T03:35:23;14.47;;;2.30;;
18592;SDS011;9426;54.118;17.948;2024-01-27T03:40:47;12.47;;;2.03;;
18592;SDS011;9426;54.118;17.948;2024-01-27T03:46:14;15.90;;;2.10;;
18592;SDS011;9426;54.118;17.948;2024-01-27T03:51:38;10.07;;;2.27;;
18592;SDS011;9426;54.118;17.948;2024-01-27T03:57:02;13.00;;;1.80;;
18592;SDS011;9426;54.118;17.948;2024-01-27T04:02:28;5.73;;;1.40;;
18592;SDS011;9426;54.118;17.948;2024-01-27T04:07:52;9.60;;;1.20;;
18592;SDS011;9426;54.118;17.948;2024-01-27T04:13:16;10.37;;;1.97;;
18592;SDS011;9426;54.118;17.948;2024-01-27T04:18:41;12.70;;;2.20;;
18592;SDS011;9426;54.118;17.948;2024-01-27T04:24:05;8.80;;;1.33;;
18592;SDS011;9426;54.118;17.948;2024-01-27T04:29:29;3.73;;;1.03;;
18592;SDS011;9426;54.118;17.948;2024-01-27T04:34:55;6.17;;;1.43;;
18592;SDS011;9426;54.118;17.948;2024-01-27T04:40:20;2.03;;;0.93;;
18592;SDS011;9426;54.118;17.948;2024-01-27T04:45:45;4.33;;;1.10;;
18592;SDS011;9426;54.118;17.948;2024-01-27T04:51:18;9.40;;;1.63;;
18592;SDS011;9426;54.118;17.948;2024-01-27T04:56:45;4.63;;;1.00;;
18592;SDS011;9426;54.118;17.948;2024-01-27T05:02:11;5.33;;;0.90;;
18592;SDS011;9426;54.118;17.948;2024-01-27T05:07:36;2.60;;;0.70;;
18592;SDS011;9426;54.118;17.948;2024-01-27T05:13:02;7.27;;;1.63;;
18592;SDS011;9426;54.118;17.948;2024-01-27T05:18:25;3.27;;;0.80;;
18592;SDS011;9426;54.118;17.948;2024-01-27T05:23:51;2.73;;;0.77;;
18592;SDS011;9426;54.118;17.948;2024-01-27T05:29:16;1.97;;;0.90;;
18592;SDS011;9426;54.118;17.948;2024-01-27T05:34:41;2.00;;;0.70;;
18592;SDS011;9426;54.118;17.948;2024-01-27T05:40:07;1.23;;;0.70;;
18592;SDS011;9426;54.118;17.948;2024-01-27T05:45:34;1.03;;;0.53;;
18592;SDS011;9426;54.118;17.948;2024-01-27T05:50:59;1.33;;;0.70;;
18592;SDS011;9426;54.118;17.948;2024-01-27T05:56:24;2.00;;;0.70;;
18592;SDS011;9426;54.118;17.948;2024-01-27T06:01:49;0.93;;;0.60;;
18592;SDS011;9426;54.118;17.948;2024-01-27T06:07:13;2.00;;;0.50;;
18592;SDS011;9426;54.118;17.948;2024-01-27T06:12:39;0.60;;;0.60;;
18592;SDS011;9426;54.118;17.948;2024-01-27T06:18:03;12.50;;;5.73;;
18592;SDS011;9426;54.118;17.948;2024-01-27T06:23:27;1.67;;;1.10;;
18592;SDS011;9426;54.118;17.948;2024-01-27T06:28:53;0.70;;;0.70;;
18592;SDS011;9426;54.118;17.948;2024-01-27T06:34:17;1.70;;;0.70;;
18592;SDS011;9426;54.118;17.948;2024-01-27T06:39:42;0.40;;;0.40;;
18592;SDS011;9426;54.118;17.948;2024-01-27T06:45:08;1.93;;;1.00;;
18592;SDS011;9426;54.118;17.948;2024-01-27T06:50:34;1.23;;;0.80;;
18592;SDS011;9426;54.118;17.948;2024-01-27T06:55:57;1.63;;;0.80;;
18592;SDS011;9426;54.118;17.948;2024-01-27T07:01:23;1.87;;;1.00;;
18592;SDS011;9426;54.118;17.948;2024-01-27T07:06:47;1.07;;;0.90;;
18592;SDS011;9426;54.118;17.948;2024-01-27T07:12:11;2.40;;;0.90;;
18592;SDS011;9426;54.118;17.948;2024-01-27T07:17:36;2.83;;;1.03;;
18592;SDS011;9426;54.118;17.948;2024-01-27T07:23:01;2.60;;;0.90;;
18592;SDS011;9426;54.118;17.948;2024-01-27T07:28:27;1.33;;;1.00;;
18592;SDS011;9426;54.118;17.948;2024-01-27T07:33:53;3.10;;;1.13;;
18592;SDS011;9426;54.118;17.948;2024-01-27T07:39:17;2.80;;;1.40;;
18592;SDS011;9426;54.118;17.948;2024-01-27T07:44:44;1.00;;;0.90;;
18592;SDS011;9426;54.118;17.948;2024-01-27T07:50:10;1.80;;;1.00;;
18592;SDS011;9426;54.118;17.948;2024-01-27T07:55:35;2.40;;;1.27;;
18592;SDS011;9426;54.118;17.948;2024-01-27T08:01:02;2.57;;;1.00;;
18592;SDS011;9426;54.118;17.948;2024-01-27T08:06:30;2.60;;;0.97;;
18592;SDS011;9426;54.118;17.948;2024-01-27T08:12:00;1.27;;;0.83;;
18592;SDS011;9426;54.118;17.948;2024-01-27T08:17:27;1.53;;;1.10;;
18592;SDS011;9426;54.118;17.948;2024-01-27T08:22:54;5.03;;;1.27;;
18592;SDS011;9426;54.118;17.948;2024-01-27T08:28:17;3.47;;;1.57;;
18592;SDS011;9426;54.118;17.948;2024-01-27T08:33:42;1.97;;;1.10;;
18592;SDS011;9426;54.118;17.948;2024-01-27T08:39:07;5.17;;;2.00;;
18592;SDS011;9426;54.118;17.948;2024-01-27T08:44:36;4.13;;;1.17;;
18592;SDS011;9426;54.118;17.948;2024-01-27T08:50:03;4.13;;;1.50;;
18592;SDS011;9426;54.118;17.948;2024-01-27T08:55:31;3.97;;;1.80;;
18592;SDS011;9426;54.118;17.948;2024-01-27T09:00:55;5.40;;;1.83;;
18592;SDS011;9426;54.118;17.948;2024-01-27T09:06:20;7.30;;;1.97;;
18592;SDS011;9426;54.118;17.948;2024-01-27T09:11:47;9.00;;;2.37;;
18592;SDS011;9426;54.118;17.948;2024-01-27T09:17:12;10.20;;;1.80;;
18592;SDS011;9426;54.118;17.948;2024-01-27T09:22:36;8.43;;;1.93;;
18592;SDS011;9426;54.118;17.948;2024-01-27T09:28:04;10.60;;;1.90;;
18592;SDS011;9426;54.118;17.948;2024-01-27T09:33:29;8.20;;;1.63;;
18592;SDS011;9426;54.118;17.948;2024-01-27T09:38:55;7.57;;;2.13;;
18592;SDS011;9426;54.118;17.948;2024-01-27T09:44:24;18.40;;;2.63;;
18592;SDS011;9426;54.118;17.948;2024-01-27T09:49:50;10.83;;;1.80;;
18592;SDS011;9426;54.118;17.948;2024-01-27T09:55:16;6.47;;;1.67;;
18592;SDS011;9426;54.118;17.948;2024-01-27T10:01:04;4.60;;;1.67;;
18592;SDS011;9426;54.118;17.948;2024-01-27T10:06:53;7.43;;;2.33;;
18592;SDS011;9426;54.118;17.948;2024-01-27T10:12:28;7.53;;;1.50;;
18592;SDS011;9426;54.118;17.948;2024-01-27T10:18:07;7.20;;;1.73;;
18592;SDS011;9426;54.118;17.948;2024-01-27T10:23:38;12.30;;;2.07;;
18592;SDS011;9426;54.118;17.948;2024-01-27T10:29:05;9.47;;;2.20;;
18592;SDS011;9426;54.118;17.948;2024-01-27T10:34:34;8.80;;;2.10;;
18592;SDS011;9426;54.118;17.948;2024-01-27T10:40:01;7.23;;;1.97;;
18592;SDS011;9426;54.118;17.948;2024-01-27T10:45:27;15.27;;;1.83;;
18592;SDS011;9426;54.118;17.948;2024-01-27T10:50:57;8.73;;;2.17;;
18592;SDS011;9426;54.118;17.948;2024-01-27T10:56:26;14.33;;;1.90;;
18592;SDS011;9426;54.118;17.948;2024-01-27T11:01:52;10.00;;;1.53;;
18592;SDS011;9426;54.118;17.948;2024-01-27T11:07:20;11.70;;;1.83;;
18592;SDS011;9426;54.118;17.948;2024-01-27T11:12:45;12.13;;;1.90;;
18592;SDS011;9426;54.118;17.948;2024-01-27T11:18:11;11.97;;;2.90;;
18592;SDS011;9426;54.118;17.948;2024-01-27T11:23:40;11.70;;;1.80;;
18592;SDS011;9426;54.118;17.948;2024-01-27T11:29:06;8.70;;;1.40;;
18592;SDS011;9426;54.118;17.948;2024-01-27T11:34:43;4.07;;;1.60;;
18592;SDS011;9426;54.118;17.948;2024-01-27T11:40:21;5.93;;;1.40;;
18592;SDS011;9426;54.118;17.948;2024-01-27T11:45:54;14.13;;;2.10;;
18592;SDS011;9426;54.118;17.948;2024-01-27T11:51:21;9.47;;;1.80;;
18592;SDS011;9426;54.118;17.948;2024-01-27T11:56:49;10.30;;;1.87;;
18592;SDS011;9426;54.118;17.948;2024-01-27T12:02:13;14.30;;;2.30;;
18592;SDS011;9426;54.118;17.948;2024-01-27T12:07:43;12.70;;;2.17;;
18592;SDS011;9426;54.118;17.948;2024-01-27T12:13:09;12.20;;;2.50;;
18592;SDS011;9426;54.118;17.948;2024-01-27T12:18:33;14.57;;;2.20;;
18592;SDS011;9426;54.118;17.948;2024-01-27T12:23:57;11.40;;;1.87;;
18592;SDS011;9426;54.118;17.948;2024-01-27T12:29:23;16.53;;;2.73;;
18592;SDS011;9426;54.118;17.948;2024-01-27T12:34:48;10.43;;;2.20;;
18592;SDS011;9426;54.118;17.948;2024-01-27T12:40:18;16.23;;;2.83;;
18592;SDS011;9426;54.118;17.948;2024-01-27T12:45:44;16.90;;;3.07;;
18592;SDS011;9426;54.118;17.948;2024-01-27T12:51:08;18.50;;;3.20;;
18592;SDS011;9426;54.118;17.948;2024-01-27T12:56:32;19.80;;;3.70;;
18592;SDS011;9426;54.118;17.948;2024-01-27T13:01:58;13.07;;;2.60;;
18592;SDS011;9426;54.118;17.948;2024-01-27T13:07:24;19.03;;;3.10;;
18592;SDS011;9426;54.118;17.948;2024-01-27T13:13:08;21.57;;;2.60;;
18592;SDS011;9426;54.118;17.948;2024-01-27T13:18:53;19.67;;;3.03;;
18592;SDS011;9426;54.118;17.948;2024-01-27T13:24:17;24.37;;;3.47;;
18592;SDS011;9426;54.118;17.948;2024-01-27T13:29:41;15.33;;;3.10;;
18592;SDS011;9426;54.118;17.948;2024-01-27T13:35:09;17.60;;;2.90;;
18592;SDS011;9426;54.118;17.948;2024-01-27T13:47:05;15.73;;;3.57;;
18592;SDS011;9426;54.118;17.948;2024-01-27T13:52:32;19.37;;;3.43;;
18592;SDS011;9426;54.118;17.948;2024-01-27T13:57:56;22.87;;;3.80;;
18592;SDS011;9426;54.118;17.948;2024-01-27T14:03:21;16.00;;;2.97;;
18592;SDS011;9426;54.118;17.948;2024-01-27T14:08:47;23.77;;;4.30;;
18592;SDS011;9426;54.118;17.948;2024-01-27T14:14:11;16.07;;;3.20;;
18592;SDS011;9426;54.118;17.948;2024-01-27T14:19:34;15.67;;;2.50;;
18592;SDS011;9426;54.118;17.948;2024-01-27T14:25:00;20.23;;;4.03;;
18592;SDS011;9426;54.118;17.948;2024-01-27T14:30:24;24.53;;;3.90;;
18592;SDS011;9426;54.118;17.948;2024-01-27T14:35:47;24.07;;;4.60;;
18592;SDS011;9426;54.118;17.948;2024-01-27T14:41:13;27.27;;;5.57;;
18592;SDS011;9426;54.118;17.948;2024-01-27T14:46:37;16.17;;;3.30;;
18592;SDS011;9426;54.118;17.948;2024-01-27T14:52:02;20.83;;;3.63;;
18592;SDS011;9426;54.118;17.948;2024-01-27T14:57:28;25.30;;;4.00;;
18592;SDS011;9426;54.118;17.948;2024-01-27T15:02:52;18.33;;;3.37;;
18592;SDS011;9426;54.118;17.948;2024-01-27T15:08:18;30.60;;;4.40;;
18592;SDS011;9426;54.118;17.948;2024-01-27T15:13:45;23.47;;;4.00;;
18592;SDS011;9426;54.118;17.948;2024-01-27T15:19:11;29.20;;;3.97;;
18592;SDS011;9426;54.118;17.948;2024-01-27T15:24:35;31.37;;;4.83;;
18592;SDS011;9426;54.118;17.948;2024-01-27T15:30:03;26.33;;;4.80;;
18592;SDS011;9426;54.118;17.948;2024-01-27T15:35:28;31.10;;;4.37;;
18592;SDS011;9426;54.118;17.948;2024-01-27T15:40:57;32.50;;;4.67;;
18592;SDS011;9426;54.118;17.948;2024-01-27T15:46:26;31.53;;;5.80;;
18592;SDS011;9426;54.118;17.948;2024-01-27T15:51:55;35.40;;;5.00;;
18592;SDS011;9426;54.118;17.948;2024-01-27T15:57:19;36.97;;;5.10;;
18592;SDS011;9426;54.118;17.948;2024-01-27T16:02:46;27.20;;;4.17;;
18592;SDS011;9426;54.118;17.948;2024-01-27T16:08:10;39.90;;;4.70;;
18592;SDS011;9426;54.118;17.948;2024-01-27T16:13:35;32.87;;;5.13;;
18592;SDS011;9426;54.118;17.948;2024-01-27T16:19:03;31.30;;;4.67;;
18592;SDS011;9426;54.118;17.948;2024-01-27T16:24:29;28.40;;;4.73;;
18592;SDS011;9426;54.118;17.948;2024-01-27T16:29:53;38.70;;;4.70;;
18592;SDS011;9426;54.118;17.948;2024-01-27T16:35:19;105.87;;;26.33;;
18592;SDS011;9426;54.118;17.948;2024-01-27T16:40:44;33.47;;;5.20;;
18592;SDS011;9426;54.118;17.948;2024-01-27T16:46:07;27.97;;;5.93;;
18592;SDS011;9426;54.118;17.948;2024-01-27T16:51:32;34.43;;;6.03;;
18592;SDS011;9426;54.118;17.948;2024-01-27T16:56:57;35.23;;;5.13;;
18592;SDS011;9426;54.118;17.948;2024-01-27T17:02:21;23.07;;;4.53;;
18592;SDS011;9426;54.118;17.948;2024-01-27T17:07:47;35.10;;;4.50;;
18592;SDS011;9426;54.118;17.948;2024-01-27T17:13:11;32.80;;;4.00;;
18592;SDS011;9426;54.118;17.948;2024-01-27T17:18:37;23.97;;;3.87;;
18592;SDS011;9426;54.118;17.948;2024-01-27T17:24:04;30.77;;;4.70;;
18592;SDS011;9426;54.118;17.948;2024-01-27T17:35:20;27.47;;;4.10;;
18592;SDS011;9426;54.118;17.948;2024-01-27T17:40:46;24.53;;;3.83;;
18592;SDS011;9426;54.118;17.948;2024-01-27T17:46:10;26.27;;;3.93;;
18592;SDS011;9426;54.118;17.948;2024-01-27T17:51:35;24.53;;;3.97;;
18592;SDS011;9426;54.118;17.948;2024-01-27T17:57:02;31.10;;;4.90;;
18592;SDS011;9426;54.118;17.948;2024-01-27T18:02:28;18.13;;;3.40;;
18592;SDS011;9426;54.118;17.948;2024-01-27T18:07:51;36.17;;;4.87;;
18592;SDS011;9426;54.118;17.948;2024-01-27T18:13:19;23.40;;;3.33;;
18592;SDS011;9426;54.118;17.948;2024-01-27T18:18:43;20.90;;;3.73;;
18592;SDS011;9426;54.118;17.948;2024-01-27T18:24:07;29.40;;;4.17;;
18592;SDS011;9426;54.118;17.948;2024-01-27T18:29:34;32.00;;;4.60;;
18592;SDS011;9426;54.118;17.948;2024-01-27T18:35:00;29.87;;;4.50;;
18592;SDS011;9426;54.118;17.948;2024-01-27T18:40:25;32.17;;;4.40;;
18592;SDS011;9426;54.118;17.948;2024-01-27T18:45:50;28.77;;;4.37;;
18592;SDS011;9426;54.118;17.948;2024-01-27T18:51:15;29.67;;;3.77;;
18592;SDS011;9426;54.118;17.948;2024-01-27T18:56:40;25.93;;;4.37;;
18592;SDS011;9426;54.118;17.948;2024-01-27T19:02:05;20.50;;;3.70;;
18592;SDS011;9426;54.118;17.948;2024-01-27T19:07:31;31.70;;;4.50;;
18592;SDS011;9426;54.118;17.948;2024-01-27T19:12:55;24.97;;;4.10;;
18592;SDS011;9426;54.118;17.948;2024-01-27T19:18:23;25.57;;;4.03;;
18592;SDS011;9426;54.118;17.948;2024-01-27T19:49:58;23.47;;;4.47;;
18592;SDS011;9426;54.118;17.948;2024-01-27T19:55:49;29.30;;;4.70;;
18592;SDS011;9426;54.118;17.948;2024-01-27T20:01:19;22.40;;;3.43;;
18592;SDS011;9426;54.118;17.948;2024-01-27T20:06:45;33.37;;;4.57;;
18592;SDS011;9426;54.118;17.948;2024-01-27T20:12:11;23.97;;;4.10;;
18592;SDS011;9426;54.118;17.948;2024-01-27T20:17:37;25.03;;;3.50;;
18592;SDS011;9426;54.118;17.948;2024-01-27T20:23:07;22.20;;;4.57;;
18592;SDS011;9426;54.118;17.948;2024-01-27T20:28:31;26.13;;;4.27;;
18592;SDS011;9426;54.118;17.948;2024-01-27T20:33:55;23.47;;;3.57;;
18592;SDS011;9426;54.118;17.948;2024-01-27T20:39:20;23.70;;;4.00;;
18592;SDS011;9426;54.118;17.948;2024-01-27T20:44:44;16.70;;;3.73;;
18592;SDS011;9426;54.118;17.948;2024-01-27T20:50:09;24.13;;;4.33;;
18592;SDS011;9426;54.118;17.948;2024-01-27T20:55:34;22.90;;;4.23;;
18592;SDS011;9426;54.118;17.948;2024-01-27T21:00:58;21.57;;;4.00;;
18592;SDS011;9426;54.118;17.948;2024-01-27T21:06:23;20.40;;;5.70;;
18592;SDS011;9426;54.118;17.948;2024-01-27T21:11:48;18.50;;;4.60;;
18592;SDS011;9426;54.118;17.948;2024-01-27T21:17:13;20.33;;;4.77;;
18592;SDS011;9426;54.118;17.948;2024-01-27T21:22:37;26.10;;;4.87;;
18592;SDS011;9426;54.118;17.948;2024-01-27T21:28:03;25.23;;;4.43;;
18592;SDS011;9426;54.118;17.948;2024-01-27T21:33:27;17.00;;;3.80;;
18592;SDS011;9426;54.118;17.948;2024-01-27T21:38:50;11.83;;;3.20;;
18592;SDS011;9426;54.118;17.948;2024-01-27T21:44:16;13.87;;;3.20;;
18592;SDS011;9426;54.118;17.948;2024-01-27T21:49:39;22.00;;;3.93;;
18592;SDS011;9426;54.118;17.948;2024-01-27T21:55:04;19.43;;;4.20;;
18592;SDS011;9426;54.118;17.948;2024-01-27T22:00:29;15.97;;;3.73;;
18592;SDS011;9426;54.118;17.948;2024-01-27T22:05:53;20.70;;;4.77;;
18592;SDS011;9426;54.118;17.948;2024-01-27T22:11:21;20.23;;;4.10;;
18592;SDS011;9426;54.118;17.948;2024-01-27T22:16:47;20.10;;;4.27;;
18592;SDS011;9426;54.118;17.948;2024-01-27T22:22:12;23.50;;;5.27;;
18592;SDS011;9426;54.118;17.948;2024-01-27T22:27:35;17.47;;;4.50;;
18592;SDS011;9426;54.118;17.948;2024-01-27T22:33:01;24.43;;;4.23;;
18592;SDS011;9426;54.118;17.948;2024-01-27T22:38:25;25.87;;;4.57;;
18592;SDS011;9426;54.118;17.948;2024-01-27T22:43:50;23.53;;;4.53;;
18592;SDS011;9426;54.118;17.948;2024-01-27T22:49:18;21.50;;;3.60;;
18592;SDS011;9426;54.118;17.948;2024-01-27T22:54:43;19.07;;;3.33;;
18592;SDS011;9426;54.118;17.948;2024-01-27T23:00:09;18.70;;;3.97;;
18592;SDS011;9426;54.118;17.948;2024-01-27T23:05:47;17.37;;;3.47;;
18592;SDS011;9426;54.118;17.948;2024-01-27T23:11:10;17.37;;;3.33;;
18592;SDS011;9426;54.118;17.948;2024-01-27T23:16:36;11.87;;;2.93;;
18592;SDS011;9426;54.118;17.948;2024-01-27T23:22:01;22.07;;;4.10;;
18592;SDS011;9426;54.118;17.948;2024-01-27T23:27:25;22.97;;;3.90;;
18592;SDS011;9426;54.118;17.948;2024-01-27T23:32:49;21.13;;;3.33;;
18592;SDS011;9426;54.118;17.948;2024-01-27T23:38:14;11.33;;;3.63;;
18592;SDS011;9426;54.118;17.948;2024-01-27T23:43:40;14.67;;;3.63;;
18592;SDS011;9426;54.118;17.948;2024-01-27T23:49:03;19.80;;;4.50;;
18592;SDS011;9426;54.118;17.948;2024-01-27T23:54:28;17.13;;;3.93;;
18592;SDS011;9426;54.118;17.948;2024-01-27T23:59:52;16.73;;;4.13;;
